Strona główna
Zdjęcia satelitarne 10-dni prognozyKlimatMeteorologia morska Cyklony Błyskawica LotniskoFAQ Gazetka O
Pogoda : Europa Afryka Ameryka Północna Ameryka Południowa Azja Australia-Oceania Inny
Języki Kontakt

Łódź, Polska

Port lotniczy Łódź-Lublinek

Szerokość geograficzna: 51-43-19N, Długość geograficzna: 019-23-53E, wysokość: 184 m


METAR: EPLL 040100Z 00000KT CAVOK 17/11 Q1018
TAF: EPLL 032330Z 0400/0424 11005KT CAVOK

czas: 03:18 (01:18 UTC)

Aktualna obserwacja pogody

Raport powstał 18 minut temu, godzina 01:00 UTC
Cisza
Temperatura 17°C
Wilgotność 68%
Ciśnienie 1018 hPa
Widzialność 10 km lub więcej
Brak chmur poniżej 1500 m i brak chmur cumulonimbus

Jednostka miary

Prognoza

Raport powstał 1 godzina i 48 minut temu, godzina 23:30 UTC
Prognoza ważna od 04 godzina 00 UTC do 04 godzina 24 UTC
Wiatr 5 kt od wschodnio-południowy wschód
Widzialność 10 km lub więcej
Brak chmur poniżej 1500 m i brak chmur cumulonimbus
Informacje na tej stronie internetowej podlegają klauzuli o wyłączeniu odpowiedzialności
Pogoda : Europa Afryka Ameryka Północna Ameryka Południowa Azja Australia-Oceania Inny
Zdjęcia satelitarne 10-dni prognozyKlimatMeteorologia morska Cyklony Błyskawica LotniskoFAQ Języki Kontakt Gazetka O